ALXO2: Washita River, Alex, OK

Data processed at Sat Aug 19 2017 23:04


All information presented herein is the property of the government of the United States of America and may be revised or deleted at any time without prior notice.
Dissemination of this information without the expressed written consent of the Public Affairs Office, Tulsa District U.S. Army Corps of Engineers is strictly prohibited.
These data are gathered electronically and, as presented, have not undergone any form of quality control. These data are not guaranteed to be valid or correct.
Go to home page.
Go to station list.

Upstream stations:

Downstream station:
Previous Day
Next Day
Current Day
    
SHEF ID:       ALXO2     Washita River at Alex, OK
STATION TYPE:  

               PRECIP     STAGE  RIV-FLOW  BAT-LOAD
                   in        ft       cfs      volt
              Ccp-Rev   Ccp-Rev   Ccp-Rev   Ccp-Rev
(US/Central)
08/19 00:00      0.00      2.90       860     12.41
08/19 01:00      0.00      2.89       855     12.41
08/19 02:00      0.00      2.88       851     12.33
08/19 03:00      0.00      2.88       851     12.25
08/19 04:00      0.00      2.87       846     12.33
08/19 05:00      0.00      2.88       851     12.33
08/19 06:00      0.00      2.87       846     12.25
08/19 07:00      0.00      2.92       869     12.25
08/19 08:00      0.00      2.96       887     12.33
08/19 09:00      0.00      3.02       916     12.33
08/19 10:00      0.00      3.09       949     12.41
08/19 11:00      0.00      3.19       998     12.49
08/19 12:00      0.00      3.30      1053     12.41
08/19 13:00      0.00      3.42      1115     12.49
08/19 14:00      0.00      3.55      1184     12.49
08/19 15:00      0.00      3.68      1254     12.49
08/19 16:00      0.00      3.79      1314     12.49
08/19 17:00      0.00      3.88      1364     12.49
08/19 18:00      0.00      3.95      1404     12.49
08/19 19:00      0.00      4.06      1468     12.49
08/19 20:00      0.00      4.13      1510     12.49
08/19 21:00      0.00      4.19      1545     12.49
08/19 22:00      ----      ----      ----      ----
08/19 23:00      ----      ----      ----      ----